sensor_id;sensor_type;location;lat;lon;timestamp;P1;durP1;ratioP1;P2;durP2;ratioP2
54881;SDS011;40775;51.448;4.742;2023-02-15T00:00:05;15.32;;;7.75;;
54881;SDS011;40775;51.448;4.742;2023-02-15T00:02:37;11.98;;;7.63;;
54881;SDS011;40775;51.448;4.742;2023-02-15T00:05:05;15.68;;;8.45;;
54881;SDS011;40775;51.448;4.742;2023-02-15T00:07:32;19.33;;;9.05;;
54881;SDS011;40775;51.448;4.742;2023-02-15T00:09:59;13.65;;;8.75;;
54881;SDS011;40775;51.448;4.742;2023-02-15T00:12:26;15.10;;;8.35;;
54881;SDS011;40775;51.448;4.742;2023-02-15T00:14:53;14.55;;;7.97;;
54881;SDS011;40775;51.448;4.742;2023-02-15T00:17:21;14.52;;;8.30;;
54881;SDS011;40775;51.448;4.742;2023-02-15T00:19:48;13.32;;;5.85;;
54881;SDS011;40775;51.448;4.742;2023-02-15T00:22:15;13.13;;;7.72;;
54881;SDS011;40775;51.448;4.742;2023-02-15T00:24:42;13.80;;;7.65;;
54881;SDS011;40775;51.448;4.742;2023-02-15T00:27:09;10.50;;;6.57;;
54881;SDS011;40775;51.448;4.742;2023-02-15T00:29:36;15.63;;;8.10;;
54881;SDS011;40775;51.448;4.742;2023-02-15T00:32:03;13.85;;;8.05;;
54881;SDS011;40775;51.448;4.742;2023-02-15T00:34:30;17.63;;;9.02;;
54881;SDS011;40775;51.448;4.742;2023-02-15T00:36:57;10.50;;;6.90;;
54881;SDS011;40775;51.448;4.742;2023-02-15T00:39:24;15.23;;;8.38;;
54881;SDS011;40775;51.448;4.742;2023-02-15T00:41:53;11.75;;;6.15;;
54881;SDS011;40775;51.448;4.742;2023-02-15T00:44:20;14.23;;;6.20;;
54881;SDS011;40775;51.448;4.742;2023-02-15T00:46:47;15.00;;;6.53;;
54881;SDS011;40775;51.448;4.742;2023-02-15T00:49:14;12.88;;;6.72;;
54881;SDS011;40775;51.448;4.742;2023-02-15T00:51:41;19.17;;;8.45;;
54881;SDS011;40775;51.448;4.742;2023-02-15T00:54:08;11.63;;;7.15;;
54881;SDS011;40775;51.448;4.742;2023-02-15T00:56:35;12.68;;;7.38;;
54881;SDS011;40775;51.448;4.742;2023-02-15T00:59:02;14.57;;;7.32;;
54881;SDS011;40775;51.448;4.742;2023-02-15T01:01:29;14.60;;;7.35;;
54881;SDS011;40775;51.448;4.742;2023-02-15T01:03:56;12.63;;;6.30;;
54881;SDS011;40775;51.448;4.742;2023-02-15T01:06:23;14.38;;;7.20;;
54881;SDS011;40775;51.448;4.742;2023-02-15T01:08:50;11.57;;;6.78;;
54881;SDS011;40775;51.448;4.742;2023-02-15T01:11:19;10.23;;;5.90;;
54881;SDS011;40775;51.448;4.742;2023-02-15T01:13:49;10.90;;;5.47;;
54881;SDS011;40775;51.448;4.742;2023-02-15T01:16:18;12.90;;;6.75;;
54881;SDS011;40775;51.448;4.742;2023-02-15T01:18:46;18.25;;;7.53;;
54881;SDS011;40775;51.448;4.742;2023-02-15T01:21:15;13.35;;;7.55;;
54881;SDS011;40775;51.448;4.742;2023-02-15T01:23:45;10.43;;;5.35;;
54881;SDS011;40775;51.448;4.742;2023-02-15T01:26:13;11.27;;;7.63;;
54881;SDS011;40775;51.448;4.742;2023-02-15T01:28:41;10.05;;;5.80;;
54881;SDS011;40775;51.448;4.742;2023-02-15T01:31:09;15.55;;;5.85;;
54881;SDS011;40775;51.448;4.742;2023-02-15T01:33:39;11.18;;;6.18;;
54881;SDS011;40775;51.448;4.742;2023-02-15T01:36:07;9.48;;;6.30;;
54881;SDS011;40775;51.448;4.742;2023-02-15T01:38:34;12.57;;;7.20;;
54881;SDS011;40775;51.448;4.742;2023-02-15T01:41:02;12.75;;;7.20;;
54881;SDS011;40775;51.448;4.742;2023-02-15T01:47:13;6.07;;;3.35;;
54881;SDS011;40775;51.448;4.742;2023-02-15T01:49:49;14.63;;;7.22;;
54881;SDS011;40775;51.448;4.742;2023-02-15T01:52:36;10.40;;;5.57;;
54881;SDS011;40775;51.448;4.742;2023-02-15T01:55:08;9.52;;;5.47;;
54881;SDS011;40775;51.448;4.742;2023-02-15T01:57:36;12.65;;;7.20;;
54881;SDS011;40775;51.448;4.742;2023-02-15T02:00:04;12.52;;;6.30;;
54881;SDS011;40775;51.448;4.742;2023-02-15T02:02:32;8.27;;;4.43;;
54881;SDS011;40775;51.448;4.742;2023-02-15T02:05:00;11.02;;;5.72;;
54881;SDS011;40775;51.448;4.742;2023-02-15T02:07:33;9.50;;;6.15;;
54881;SDS011;40775;51.448;4.742;2023-02-15T02:10:07;13.02;;;6.97;;
54881;SDS011;40775;51.448;4.742;2023-02-15T02:12:37;11.75;;;6.65;;
54881;SDS011;40775;51.448;4.742;2023-02-15T02:15:08;13.27;;;6.72;;
54881;SDS011;40775;51.448;4.742;2023-02-15T02:17:54;18.05;;;7.75;;
54881;SDS011;40775;51.448;4.742;2023-02-15T02:34:47;7.30;;;3.88;;
54881;SDS011;40775;51.448;4.742;2023-02-15T02:43:39;9.70;;;4.20;;
54881;SDS011;40775;51.448;4.742;2023-02-15T02:46:27;7.30;;;3.47;;
54881;SDS011;40775;51.448;4.742;2023-02-15T02:49:03;11.98;;;5.85;;
54881;SDS011;40775;51.448;4.742;2023-02-15T02:51:30;8.00;;;4.05;;
54881;SDS011;40775;51.448;4.742;2023-02-15T02:53:58;7.95;;;4.07;;
54881;SDS011;40775;51.448;4.742;2023-02-15T02:59:13;2.78;;;1.55;;
54881;SDS011;40775;51.448;4.742;2023-02-15T03:01:55;7.82;;;4.38;;
54881;SDS011;40775;51.448;4.742;2023-02-15T03:04:45;10.10;;;5.72;;
54881;SDS011;40775;51.448;4.742;2023-02-15T03:09:54;2.70;;;1.40;;
54881;SDS011;40775;51.448;4.742;2023-02-15T03:12:28;5.80;;;3.45;;
54881;SDS011;40775;51.448;4.742;2023-02-15T03:15:04;7.65;;;4.03;;
54881;SDS011;40775;51.448;4.742;2023-02-15T03:17:42;8.90;;;4.20;;
54881;SDS011;40775;51.448;4.742;2023-02-15T03:22:46;8.63;;;4.65;;
54881;SDS011;40775;51.448;4.742;2023-02-15T03:25:19;6.22;;;3.45;;
54881;SDS011;40775;51.448;4.742;2023-02-15T03:28:09;8.20;;;4.45;;
54881;SDS011;40775;51.448;4.742;2023-02-15T03:30:45;9.45;;;5.40;;
54881;SDS011;40775;51.448;4.742;2023-02-15T03:33:18;7.57;;;4.40;;
54881;SDS011;40775;51.448;4.742;2023-02-15T03:36:01;11.40;;;6.15;;
54881;SDS011;40775;51.448;4.742;2023-02-15T03:38:53;10.35;;;5.20;;
54881;SDS011;40775;51.448;4.742;2023-02-15T03:47:43;9.98;;;5.60;;
54881;SDS011;40775;51.448;4.742;2023-02-15T03:53:16;1.75;;;1.13;;
54881;SDS011;40775;51.448;4.742;2023-02-15T03:55:47;11.80;;;4.30;;
54881;SDS011;40775;51.448;4.742;2023-02-15T03:58:19;9.50;;;5.13;;
54881;SDS011;40775;51.448;4.742;2023-02-15T04:01:05;5.22;;;2.42;;
54881;SDS011;40775;51.448;4.742;2023-02-15T04:04:11;7.78;;;3.95;;
54881;SDS011;40775;51.448;4.742;2023-02-15T04:07:05;10.45;;;3.13;;
54881;SDS011;40775;51.448;4.742;2023-02-15T04:09:34;12.15;;;5.35;;
54881;SDS011;40775;51.448;4.742;2023-02-15T04:12:20;10.02;;;5.38;;
54881;SDS011;40775;51.448;4.742;2023-02-15T04:14:47;11.55;;;6.50;;
54881;SDS011;40775;51.448;4.742;2023-02-15T04:17:33;7.63;;;4.35;;
54881;SDS011;40775;51.448;4.742;2023-02-15T04:20:01;6.85;;;3.22;;
54881;SDS011;40775;51.448;4.742;2023-02-15T04:22:47;7.47;;;3.47;;
54881;SDS011;40775;51.448;4.742;2023-02-15T04:25:33;9.13;;;5.13;;
54881;SDS011;40775;51.448;4.742;2023-02-15T04:28:01;8.52;;;5.57;;
54881;SDS011;40775;51.448;4.742;2023-02-15T04:30:28;12.02;;;6.93;;
54881;SDS011;40775;51.448;4.742;2023-02-15T04:32:55;11.13;;;5.97;;
54881;SDS011;40775;51.448;4.742;2023-02-15T04:35:23;9.70;;;4.65;;
54881;SDS011;40775;51.448;4.742;2023-02-15T04:37:50;9.95;;;5.35;;
54881;SDS011;40775;51.448;4.742;2023-02-15T04:40:17;6.90;;;4.13;;
54881;SDS011;40775;51.448;4.742;2023-02-15T04:42:47;9.82;;;6.25;;
54881;SDS011;40775;51.448;4.742;2023-02-15T04:45:15;7.68;;;3.35;;
54881;SDS011;40775;51.448;4.742;2023-02-15T04:47:43;9.20;;;5.63;;
54881;SDS011;40775;51.448;4.742;2023-02-15T04:50:11;7.70;;;4.70;;
54881;SDS011;40775;51.448;4.742;2023-02-15T04:52:38;7.00;;;4.15;;
54881;SDS011;40775;51.448;4.742;2023-02-15T04:55:05;8.40;;;4.95;;
54881;SDS011;40775;51.448;4.742;2023-02-15T04:57:41;12.02;;;6.18;;
54881;SDS011;40775;51.448;4.742;2023-02-15T05:00:08;5.85;;;2.67;;
54881;SDS011;40775;51.448;4.742;2023-02-15T05:02:36;9.27;;;5.40;;
54881;SDS011;40775;51.448;4.742;2023-02-15T05:05:03;10.45;;;5.60;;
54881;SDS011;40775;51.448;4.742;2023-02-15T05:07:31;6.13;;;3.78;;
54881;SDS011;40775;51.448;4.742;2023-02-15T05:09:58;12.52;;;6.80;;
54881;SDS011;40775;51.448;4.742;2023-02-15T05:12:25;14.57;;;6.05;;
54881;SDS011;40775;51.448;4.742;2023-02-15T05:14:52;10.88;;;6.47;;
54881;SDS011;40775;51.448;4.742;2023-02-15T05:17:19;6.35;;;4.30;;
54881;SDS011;40775;51.448;4.742;2023-02-15T05:19:46;8.23;;;4.07;;
54881;SDS011;40775;51.448;4.742;2023-02-15T05:22:13;7.60;;;4.43;;
54881;SDS011;40775;51.448;4.742;2023-02-15T05:24:40;7.55;;;4.15;;
54881;SDS011;40775;51.448;4.742;2023-02-15T05:27:25;10.60;;;5.10;;
54881;SDS011;40775;51.448;4.742;2023-02-15T05:30:12;11.85;;;4.93;;
54881;SDS011;40775;51.448;4.742;2023-02-15T05:32:40;7.78;;;4.15;;
54881;SDS011;40775;51.448;4.742;2023-02-15T05:35:07;12.07;;;6.28;;
54881;SDS011;40775;51.448;4.742;2023-02-15T05:37:39;15.30;;;6.60;;
54881;SDS011;40775;51.448;4.742;2023-02-15T05:40:06;13.63;;;7.10;;
54881;SDS011;40775;51.448;4.742;2023-02-15T05:42:34;9.40;;;4.72;;
54881;SDS011;40775;51.448;4.742;2023-02-15T05:45:01;9.45;;;6.03;;
54881;SDS011;40775;51.448;4.742;2023-02-15T05:47:29;10.15;;;5.93;;
54881;SDS011;40775;51.448;4.742;2023-02-15T05:49:57;12.43;;;6.53;;
54881;SDS011;40775;51.448;4.742;2023-02-15T05:52:24;13.45;;;6.57;;
54881;SDS011;40775;51.448;4.742;2023-02-15T05:54:51;13.70;;;7.45;;
54881;SDS011;40775;51.448;4.742;2023-02-15T05:57:18;12.15;;;5.32;;
54881;SDS011;40775;51.448;4.742;2023-02-15T05:59:45;7.75;;;3.95;;
54881;SDS011;40775;51.448;4.742;2023-02-15T06:02:12;17.95;;;7.15;;
54881;SDS011;40775;51.448;4.742;2023-02-15T06:04:39;11.40;;;6.35;;
54881;SDS011;40775;51.448;4.742;2023-02-15T06:07:06;16.83;;;8.18;;
54881;SDS011;40775;51.448;4.742;2023-02-15T06:09:33;11.70;;;5.63;;
54881;SDS011;40775;51.448;4.742;2023-02-15T06:12:00;12.55;;;5.95;;
54881;SDS011;40775;51.448;4.742;2023-02-15T06:14:27;14.18;;;6.95;;
54881;SDS011;40775;51.448;4.742;2023-02-15T06:16:54;6.38;;;2.67;;
54881;SDS011;40775;51.448;4.742;2023-02-15T06:19:21;6.80;;;4.18;;
54881;SDS011;40775;51.448;4.742;2023-02-15T06:21:49;15.02;;;6.68;;
54881;SDS011;40775;51.448;4.742;2023-02-15T06:24:15;11.15;;;4.75;;
54881;SDS011;40775;51.448;4.742;2023-02-15T06:26:43;14.52;;;7.75;;
54881;SDS011;40775;51.448;4.742;2023-02-15T06:29:09;10.10;;;5.28;;
54881;SDS011;40775;51.448;4.742;2023-02-15T06:31:36;11.95;;;6.63;;
54881;SDS011;40775;51.448;4.742;2023-02-15T06:34:04;9.55;;;4.55;;
54881;SDS011;40775;51.448;4.742;2023-02-15T06:36:31;8.63;;;4.25;;
54881;SDS011;40775;51.448;4.742;2023-02-15T06:38:58;7.20;;;3.83;;
54881;SDS011;40775;51.448;4.742;2023-02-15T06:41:25;10.73;;;4.68;;
54881;SDS011;40775;51.448;4.742;2023-02-15T06:43:52;9.35;;;4.90;;
54881;SDS011;40775;51.448;4.742;2023-02-15T06:46:19;16.65;;;11.15;;
54881;SDS011;40775;51.448;4.742;2023-02-15T06:48:46;1.98;;;1.70;;
54881;SDS011;40775;51.448;4.742;2023-02-15T06:51:13;2.63;;;0.75;;
54881;SDS011;40775;51.448;4.742;2023-02-15T06:53:40;1.65;;;1.02;;
54881;SDS011;40775;51.448;4.742;2023-02-15T06:56:09;1.70;;;1.08;;
54881;SDS011;40775;51.448;4.742;2023-02-15T06:58:40;2.15;;;1.08;;
54881;SDS011;40775;51.448;4.742;2023-02-15T07:01:08;2.33;;;1.00;;
54881;SDS011;40775;51.448;4.742;2023-02-15T07:03:36;1.77;;;0.82;;
54881;SDS011;40775;51.448;4.742;2023-02-15T07:06:03;2.03;;;0.80;;
54881;SDS011;40775;51.448;4.742;2023-02-15T07:08:34;3.55;;;1.05;;
54881;SDS011;40775;51.448;4.742;2023-02-15T07:11:02;3.95;;;1.08;;
54881;SDS011;40775;51.448;4.742;2023-02-15T07:13:49;1.88;;;1.00;;
54881;SDS011;40775;51.448;4.742;2023-02-15T07:16:16;2.20;;;1.25;;
54881;SDS011;40775;51.448;4.742;2023-02-15T07:18:43;3.00;;;1.45;;
54881;SDS011;40775;51.448;4.742;2023-02-15T07:21:10;4.88;;;1.33;;
54881;SDS011;40775;51.448;4.742;2023-02-15T07:23:37;2.25;;;0.73;;
54881;SDS011;40775;51.448;4.742;2023-02-15T07:26:06;2.60;;;1.20;;
54881;SDS011;40775;51.448;4.742;2023-02-15T07:28:34;1.33;;;0.98;;
54881;SDS011;40775;51.448;4.742;2023-02-15T07:31:02;1.70;;;0.90;;
54881;SDS011;40775;51.448;4.742;2023-02-15T07:33:31;3.83;;;1.60;;
54881;SDS011;40775;51.448;4.742;2023-02-15T07:35:59;3.50;;;1.58;;
54881;SDS011;40775;51.448;4.742;2023-02-15T07:38:33;1.88;;;0.98;;
54881;SDS011;40775;51.448;4.742;2023-02-15T07:41:04;4.72;;;1.88;;
54881;SDS011;40775;51.448;4.742;2023-02-15T07:43:34;4.10;;;2.03;;
54881;SDS011;40775;51.448;4.742;2023-02-15T07:46:08;1.15;;;0.90;;
54881;SDS011;40775;51.448;4.742;2023-02-15T07:48:41;4.68;;;1.35;;
54881;SDS011;40775;51.448;4.742;2023-02-15T07:51:09;2.20;;;1.15;;
54881;SDS011;40775;51.448;4.742;2023-02-15T07:53:38;3.30;;;1.63;;
54881;SDS011;40775;51.448;4.742;2023-02-15T07:56:06;2.42;;;1.40;;
54881;SDS011;40775;51.448;4.742;2023-02-15T07:58:37;2.97;;;1.40;;
54881;SDS011;40775;51.448;4.742;2023-02-15T08:01:25;2.20;;;1.10;;
54881;SDS011;40775;51.448;4.742;2023-02-15T08:03:56;4.53;;;2.25;;
54881;SDS011;40775;51.448;4.742;2023-02-15T08:06:27;4.47;;;1.42;;
54881;SDS011;40775;51.448;4.742;2023-02-15T08:11:30;2.00;;;1.00;;
54881;SDS011;40775;51.448;4.742;2023-02-15T08:16:47;3.20;;;1.70;;
54881;SDS011;40775;51.448;4.742;2023-02-15T08:19:18;2.30;;;1.45;;
54881;SDS011;40775;51.448;4.742;2023-02-15T08:24:26;3.30;;;1.63;;
54881;SDS011;40775;51.448;4.742;2023-02-15T08:26:57;2.28;;;1.33;;
54881;SDS011;40775;51.448;4.742;2023-02-15T08:29:26;4.20;;;2.15;;
54881;SDS011;40775;51.448;4.742;2023-02-15T08:31:56;3.17;;;1.63;;
54881;SDS011;40775;51.448;4.742;2023-02-15T08:34:32;4.88;;;1.80;;
54881;SDS011;40775;51.448;4.742;2023-02-15T08:37:02;2.47;;;1.20;;
54881;SDS011;40775;51.448;4.742;2023-02-15T08:39:29;3.22;;;1.20;;
54881;SDS011;40775;51.448;4.742;2023-02-15T08:41:57;2.75;;;1.15;;
54881;SDS011;40775;51.448;4.742;2023-02-15T08:44:24;3.85;;;1.58;;
54881;SDS011;40775;51.448;4.742;2023-02-15T08:46:52;3.38;;;1.20;;
54881;SDS011;40775;51.448;4.742;2023-02-15T08:49:19;3.67;;;1.83;;
54881;SDS011;40775;51.448;4.742;2023-02-15T08:51:48;2.75;;;1.42;;
54881;SDS011;40775;51.448;4.742;2023-02-15T08:54:16;2.90;;;1.48;;
54881;SDS011;40775;51.448;4.742;2023-02-15T08:56:46;3.90;;;1.70;;
54881;SDS011;40775;51.448;4.742;2023-02-15T08:59:16;1.55;;;1.17;;
54881;SDS011;40775;51.448;4.742;2023-02-15T09:01:49;2.35;;;1.48;;
54881;SDS011;40775;51.448;4.742;2023-02-15T09:04:17;2.63;;;1.55;;
54881;SDS011;40775;51.448;4.742;2023-02-15T09:06:46;3.42;;;1.60;;
54881;SDS011;40775;51.448;4.742;2023-02-15T09:09:15;3.47;;;1.60;;
54881;SDS011;40775;51.448;4.742;2023-02-15T09:11:45;2.78;;;1.33;;
54881;SDS011;40775;51.448;4.742;2023-02-15T09:14:19;5.85;;;1.88;;
54881;SDS011;40775;51.448;4.742;2023-02-15T09:16:48;2.75;;;1.30;;
54881;SDS011;40775;51.448;4.742;2023-02-15T09:19:17;4.47;;;2.33;;
54881;SDS011;40775;51.448;4.742;2023-02-15T09:21:46;3.58;;;1.85;;
54881;SDS011;40775;51.448;4.742;2023-02-15T09:24:14;3.47;;;2.13;;
54881;SDS011;40775;51.448;4.742;2023-02-15T09:26:44;5.05;;;1.38;;
54881;SDS011;40775;51.448;4.742;2023-02-15T09:29:13;3.80;;;1.90;;
54881;SDS011;40775;51.448;4.742;2023-02-15T09:31:42;3.88;;;1.85;;
54881;SDS011;40775;51.448;4.742;2023-02-15T09:34:17;3.78;;;1.88;;
54881;SDS011;40775;51.448;4.742;2023-02-15T09:36:48;3.22;;;1.38;;
54881;SDS011;40775;51.448;4.742;2023-02-15T09:39:17;2.88;;;1.70;;
54881;SDS011;40775;51.448;4.742;2023-02-15T09:47:43;3.58;;;2.00;;
54881;SDS011;40775;51.448;4.742;2023-02-15T09:53:54;4.43;;;2.92;;
54881;SDS011;40775;51.448;4.742;2023-02-15T09:57:08;5.20;;;2.35;;
54881;SDS011;40775;51.448;4.742;2023-02-15T10:11:59;3.65;;;1.88;;
54881;SDS011;40775;51.448;4.742;2023-02-15T10:15:23;5.25;;;2.15;;
54881;SDS011;40775;51.448;4.742;2023-02-15T10:27:18;3.75;;;2.38;;
54881;SDS011;40775;51.448;4.742;2023-02-15T10:44:24;6.63;;;2.28;;
54881;SDS011;40775;51.448;4.742;2023-02-15T11:08:09;5.93;;;2.75;;
54881;SDS011;40775;51.448;4.742;2023-02-15T11:10:39;6.55;;;2.92;;
54881;SDS011;40775;51.448;4.742;2023-02-15T11:13:18;8.70;;;3.63;;
54881;SDS011;40775;51.448;4.742;2023-02-15T11:15:51;8.27;;;3.50;;
54881;SDS011;40775;51.448;4.742;2023-02-15T11:18:33;7.18;;;3.30;;
54881;SDS011;40775;51.448;4.742;2023-02-15T11:21:12;6.70;;;3.25;;
54881;SDS011;40775;51.448;4.742;2023-02-15T11:23:44;6.32;;;3.58;;
54881;SDS011;40775;51.448;4.742;2023-02-15T11:26:25;7.90;;;4.10;;
54881;SDS011;40775;51.448;4.742;2023-02-15T11:29:02;6.43;;;3.42;;
54881;SDS011;40775;51.448;4.742;2023-02-15T11:31:46;6.50;;;3.63;;
54881;SDS011;40775;51.448;4.742;2023-02-15T11:34:27;8.80;;;4.80;;
54881;SDS011;40775;51.448;4.742;2023-02-15T11:37:16;8.68;;;4.13;;
54881;SDS011;40775;51.448;4.742;2023-02-15T11:39:50;6.47;;;3.25;;
54881;SDS011;40775;51.448;4.742;2023-02-15T11:42:21;8.40;;;4.03;;
54881;SDS011;40775;51.448;4.742;2023-02-15T11:47:46;11.32;;;5.18;;
54881;SDS011;40775;51.448;4.742;2023-02-15T11:50:14;5.97;;;3.03;;
54881;SDS011;40775;51.448;4.742;2023-02-15T11:52:52;11.88;;;4.60;;
54881;SDS011;40775;51.448;4.742;2023-02-15T11:55:25;8.00;;;3.80;;
54881;SDS011;40775;51.448;4.742;2023-02-15T11:58:00;11.80;;;6.15;;
54881;SDS011;40775;51.448;4.742;2023-02-15T12:00:53;6.90;;;4.13;;
54881;SDS011;40775;51.448;4.742;2023-02-15T12:03:49;8.73;;;4.90;;
54881;SDS011;40775;51.448;4.742;2023-02-15T12:06:26;9.45;;;4.13;;
54881;SDS011;40775;51.448;4.742;2023-02-15T12:14:53;9.13;;;5.45;;
54881;SDS011;40775;51.448;4.742;2023-02-15T12:17:26;8.77;;;4.75;;
54881;SDS011;40775;51.448;4.742;2023-02-15T12:20:04;9.55;;;4.95;;
54881;SDS011;40775;51.448;4.742;2023-02-15T12:22:39;8.95;;;4.55;;
54881;SDS011;40775;51.448;4.742;2023-02-15T12:28:30;9.73;;;4.43;;
54881;SDS011;40775;51.448;4.742;2023-02-15T12:31:25;7.80;;;4.53;;
54881;SDS011;40775;51.448;4.742;2023-02-15T12:34:09;8.75;;;4.40;;
54881;SDS011;40775;51.448;4.742;2023-02-15T12:36:46;8.57;;;4.20;;
54881;SDS011;40775;51.448;4.742;2023-02-15T12:39:21;8.07;;;3.55;;
54881;SDS011;40775;51.448;4.742;2023-02-15T12:41:59;7.72;;;4.55;;
54881;SDS011;40775;51.448;4.742;2023-02-15T12:44:31;9.90;;;4.53;;
54881;SDS011;40775;51.448;4.742;2023-02-15T12:47:17;7.18;;;3.10;;
54881;SDS011;40775;51.448;4.742;2023-02-15T12:50:03;9.73;;;4.53;;
54881;SDS011;40775;51.448;4.742;2023-02-15T12:52:37;10.00;;;4.72;;
54881;SDS011;40775;51.448;4.742;2023-02-15T12:55:39;8.07;;;5.03;;
54881;SDS011;40775;51.448;4.742;2023-02-15T12:58:05;7.57;;;4.55;;
54881;SDS011;40775;51.448;4.742;2023-02-15T13:00:32;7.50;;;3.85;;
54881;SDS011;40775;51.448;4.742;2023-02-15T13:03:00;7.72;;;4.20;;
54881;SDS011;40775;51.448;4.742;2023-02-15T13:05:36;7.97;;;4.25;;
54881;SDS011;40775;51.448;4.742;2023-02-15T13:16:35;10.52;;;5.68;;
54881;SDS011;40775;51.448;4.742;2023-02-15T13:19:12;8.90;;;5.45;;
54881;SDS011;40775;51.448;4.742;2023-02-15T13:21:48;8.50;;;4.88;;
54881;SDS011;40775;51.448;4.742;2023-02-15T13:27:23;8.55;;;4.50;;
54881;SDS011;40775;51.448;4.742;2023-02-15T13:29:58;9.88;;;6.63;;
54881;SDS011;40775;51.448;4.742;2023-02-15T13:32:33;11.73;;;5.82;;
54881;SDS011;40775;51.448;4.742;2023-02-15T13:35:10;6.68;;;3.63;;
54881;SDS011;40775;51.448;4.742;2023-02-15T13:37:48;11.60;;;5.35;;
54881;SDS011;40775;51.448;4.742;2023-02-15T13:40:28;9.88;;;5.45;;
54881;SDS011;40775;51.448;4.742;2023-02-15T13:49:24;10.00;;;5.70;;
54881;SDS011;40775;51.448;4.742;2023-02-15T14:03:23;7.80;;;4.90;;
54881;SDS011;40775;51.448;4.742;2023-02-15T14:15:13;8.48;;;4.10;;
54881;SDS011;40775;51.448;4.742;2023-02-15T14:18:07;9.73;;;3.92;;
54881;SDS011;40775;51.448;4.742;2023-02-15T14:26:56;8.60;;;4.13;;
54881;SDS011;40775;51.448;4.742;2023-02-15T14:29:45;7.78;;;3.92;;
54881;SDS011;40775;51.448;4.742;2023-02-15T14:32:37;10.32;;;5.70;;
54881;SDS011;40775;51.448;4.742;2023-02-15T14:35:15;9.50;;;4.82;;
54881;SDS011;40775;51.448;4.742;2023-02-15T14:41:18;6.90;;;3.72;;
54881;SDS011;40775;51.448;4.742;2023-02-15T14:49:36;8.48;;;4.45;;
54881;SDS011;40775;51.448;4.742;2023-02-15T14:52:09;9.43;;;5.88;;
54881;SDS011;40775;51.448;4.742;2023-02-15T14:59:38;8.75;;;4.93;;
54881;SDS011;40775;51.448;4.742;2023-02-15T15:02:20;9.65;;;5.07;;
54881;SDS011;40775;51.448;4.742;2023-02-15T15:07:37;10.48;;;5.00;;
54881;SDS011;40775;51.448;4.742;2023-02-15T15:12:43;8.50;;;4.07;;
54881;SDS011;40775;51.448;4.742;2023-02-15T15:16:01;7.90;;;4.53;;
54881;SDS011;40775;51.448;4.742;2023-02-15T15:45:22;5.03;;;2.85;;
54881;SDS011;40775;51.448;4.742;2023-02-15T15:47:37;6.28;;;3.63;;
54881;SDS011;40775;51.448;4.742;2023-02-15T15:50:32;5.03;;;3.03;;
54881;SDS011;40775;51.448;4.742;2023-02-15T15:53:00;8.18;;;3.58;;
54881;SDS011;40775;51.448;4.742;2023-02-15T15:55:30;9.73;;;3.50;;
54881;SDS011;40775;51.448;4.742;2023-02-15T15:58:01;4.35;;;2.65;;
54881;SDS011;40775;51.448;4.742;2023-02-15T16:03:22;6.25;;;2.92;;
54881;SDS011;40775;51.448;4.742;2023-02-15T16:05:54;16.30;;;6.55;;
54881;SDS011;40775;51.448;4.742;2023-02-15T16:08:36;10.20;;;5.20;;
54881;SDS011;40775;51.448;4.742;2023-02-15T16:11:10;3.38;;;2.55;;
54881;SDS011;40775;51.448;4.742;2023-02-15T16:13:51;14.68;;;8.23;;
54881;SDS011;40775;51.448;4.742;2023-02-15T16:16:20;29.73;;;12.23;;
54881;SDS011;40775;51.448;4.742;2023-02-15T16:18:57;14.70;;;8.68;;
54881;SDS011;40775;51.448;4.742;2023-02-15T16:21:29;12.95;;;6.80;;
54881;SDS011;40775;51.448;4.742;2023-02-15T16:29:32;21.80;;;10.85;;
54881;SDS011;40775;51.448;4.742;2023-02-15T16:37:34;11.55;;;7.88;;
54881;SDS011;40775;51.448;4.742;2023-02-15T16:40:01;16.50;;;7.65;;
54881;SDS011;40775;51.448;4.742;2023-02-15T16:42:29;17.55;;;9.68;;
54881;SDS011;40775;51.448;4.742;2023-02-15T16:45:06;18.85;;;10.27;;
54881;SDS011;40775;51.448;4.742;2023-02-15T16:47:43;16.98;;;9.73;;
54881;SDS011;40775;51.448;4.742;2023-02-15T16:50:17;14.32;;;9.00;;
54881;SDS011;40775;51.448;4.742;2023-02-15T16:52:58;21.67;;;11.70;;
54881;SDS011;40775;51.448;4.742;2023-02-15T16:55:27;35.45;;;15.75;;
54881;SDS011;40775;51.448;4.742;2023-02-15T16:58:12;18.73;;;9.57;;
54881;SDS011;40775;51.448;4.742;2023-02-15T17:00:42;4.47;;;2.38;;
54881;SDS011;40775;51.448;4.742;2023-02-15T17:05:47;3.47;;;2.33;;
54881;SDS011;40775;51.448;4.742;2023-02-15T17:08:25;4.43;;;2.53;;
54881;SDS011;40775;51.448;4.742;2023-02-15T17:13:28;2.97;;;1.83;;
54881;SDS011;40775;51.448;4.742;2023-02-15T17:18:29;5.85;;;2.42;;
54881;SDS011;40775;51.448;4.742;2023-02-15T17:21:12;5.15;;;2.40;;
54881;SDS011;40775;51.448;4.742;2023-02-15T17:23:51;4.80;;;2.00;;
54881;SDS011;40775;51.448;4.742;2023-02-15T17:26:24;4.22;;;2.15;;
54881;SDS011;40775;51.448;4.742;2023-02-15T17:28:56;2.40;;;1.33;;
54881;SDS011;40775;51.448;4.742;2023-02-15T17:31:37;4.75;;;2.55;;
54881;SDS011;40775;51.448;4.742;2023-02-15T17:34:04;3.97;;;2.53;;
54881;SDS011;40775;51.448;4.742;2023-02-15T17:36:31;4.82;;;2.15;;
54881;SDS011;40775;51.448;4.742;2023-02-15T17:39:06;4.15;;;2.30;;
54881;SDS011;40775;51.448;4.742;2023-02-15T17:41:48;5.60;;;2.60;;
54881;SDS011;40775;51.448;4.742;2023-02-15T17:44:19;5.43;;;2.55;;
54881;SDS011;40775;51.448;4.742;2023-02-15T17:46:46;6.15;;;2.63;;
54881;SDS011;40775;51.448;4.742;2023-02-15T17:49:18;4.40;;;2.40;;
54881;SDS011;40775;51.448;4.742;2023-02-15T17:51:53;5.30;;;3.47;;
54881;SDS011;40775;51.448;4.742;2023-02-15T17:54:20;9.65;;;3.65;;
54881;SDS011;40775;51.448;4.742;2023-02-15T17:57:12;27.55;;;14.43;;
54881;SDS011;40775;51.448;4.742;2023-02-15T17:59:41;17.77;;;8.73;;
54881;SDS011;40775;51.448;4.742;2023-02-15T18:02:27;25.50;;;14.00;;
54881;SDS011;40775;51.448;4.742;2023-02-15T18:05:18;23.52;;;11.48;;
54881;SDS011;40775;51.448;4.742;2023-02-15T18:08:07;24.02;;;13.23;;
54881;SDS011;40775;51.448;4.742;2023-02-15T18:10:59;23.40;;;9.65;;
54881;SDS011;40775;51.448;4.742;2023-02-15T18:13:45;26.45;;;15.23;;
54881;SDS011;40775;51.448;4.742;2023-02-15T18:16:13;32.15;;;17.58;;
54881;SDS011;40775;51.448;4.742;2023-02-15T18:18:45;12.88;;;7.22;;
54881;SDS011;40775;51.448;4.742;2023-02-15T18:21:12;6.72;;;3.17;;
54881;SDS011;40775;51.448;4.742;2023-02-15T18:23:40;7.28;;;2.22;;
54881;SDS011;40775;51.448;4.742;2023-02-15T18:26:09;4.35;;;2.30;;
54881;SDS011;40775;51.448;4.742;2023-02-15T18:28:45;6.55;;;2.58;;
54881;SDS011;40775;51.448;4.742;2023-02-15T18:31:13;7.03;;;2.90;;
54881;SDS011;40775;51.448;4.742;2023-02-15T18:33:42;6.50;;;3.40;;
54881;SDS011;40775;51.448;4.742;2023-02-15T18:36:14;4.72;;;2.28;;
54881;SDS011;40775;51.448;4.742;2023-02-15T18:38:49;6.50;;;4.05;;
54881;SDS011;40775;51.448;4.742;2023-02-15T18:41:19;6.80;;;3.60;;
54881;SDS011;40775;51.448;4.742;2023-02-15T18:43:48;4.53;;;2.30;;
54881;SDS011;40775;51.448;4.742;2023-02-15T18:46:16;9.02;;;3.55;;
54881;SDS011;40775;51.448;4.742;2023-02-15T18:48:43;5.38;;;2.78;;
54881;SDS011;40775;51.448;4.742;2023-02-15T18:51:18;5.97;;;3.50;;
54881;SDS011;40775;51.448;4.742;2023-02-15T18:53:50;9.65;;;3.97;;
54881;SDS011;40775;51.448;4.742;2023-02-15T18:56:19;6.97;;;3.97;;
54881;SDS011;40775;51.448;4.742;2023-02-15T18:58:48;7.28;;;3.22;;
54881;SDS011;40775;51.448;4.742;2023-02-15T19:01:19;4.88;;;2.70;;
54881;SDS011;40775;51.448;4.742;2023-02-15T19:03:48;6.80;;;2.85;;
54881;SDS011;40775;51.448;4.742;2023-02-15T19:06:18;6.82;;;3.35;;
54881;SDS011;40775;51.448;4.742;2023-02-15T19:08:48;7.82;;;2.40;;
54881;SDS011;40775;51.448;4.742;2023-02-15T19:11:18;3.55;;;2.13;;
54881;SDS011;40775;51.448;4.742;2023-02-15T19:13:49;4.15;;;2.28;;
54881;SDS011;40775;51.448;4.742;2023-02-15T19:16:28;6.43;;;3.10;;